createdAt,value
2019-05-22T00:00:54.802Z,67.87
2019-05-22T00:03:27.695Z,67.47
2019-05-22T00:06:00.181Z,67.98
2019-05-22T00:08:31.768Z,67.12
2019-05-22T00:11:04.864Z,67.27
2019-05-22T00:13:38.333Z,67.30
2019-05-22T00:16:12.762Z,67.14
2019-05-22T00:18:45.078Z,67.19
2019-05-22T00:21:16.783Z,67.71
2019-05-22T00:23:48.027Z,66.82
2019-05-22T00:26:19.957Z,67.26
2019-05-22T00:28:54.625Z,66.80
2019-05-22T00:31:26.179Z,66.67
2019-05-22T00:33:57.947Z,66.29
2019-05-22T00:36:29.493Z,66.58
2019-05-22T00:39:01.002Z,66.36
2019-05-22T00:41:35.066Z,67.07
2019-05-22T00:44:09.184Z,67.00
2019-05-22T00:46:41.667Z,67.27
2019-05-22T00:49:14.146Z,67.00
2019-05-22T00:51:47.275Z,67.37
2019-05-22T00:54:23.408Z,67.29
2019-05-22T00:56:56.173Z,67.21
2019-05-22T00:59:29.180Z,66.30
2019-05-22T01:02:04.942Z,66.98
2019-05-22T01:04:38.721Z,66.40
2019-05-22T01:07:19.194Z,66.88
2019-05-22T01:09:52.701Z,67.19
2019-05-22T01:12:29.804Z,66.64
2019-05-22T01:15:04.866Z,66.95
2019-05-22T01:17:36.907Z,67.31
2019-05-22T01:20:11.090Z,67.29
2019-05-22T01:22:42.775Z,66.08
2019-05-22T01:25:16.582Z,66.91
2019-05-22T01:27:49.667Z,67.72
2019-05-22T01:30:29.146Z,67.10
2019-05-22T01:33:02.027Z,65.98
2019-05-22T01:35:39.701Z,64.81
2019-05-22T01:38:13.051Z,64.32
2019-05-22T01:41:01.600Z,64.01
2019-05-22T01:43:33.102Z,63.26
2019-05-22T01:46:06.611Z,62.80
2019-05-22T01:48:40.555Z,61.93
2019-05-22T01:51:11.765Z,61.53
2019-05-22T01:53:43.841Z,60.48
2019-05-22T01:56:16.633Z,60.38
2019-05-22T01:58:47.978Z,59.89
2019-05-22T02:01:20.756Z,59.66
2019-05-22T02:03:57.024Z,59.22
2019-05-22T02:06:28.474Z,59.16
2019-05-22T02:09:16.410Z,58.55
2019-05-22T02:11:49.405Z,58.42
2019-05-22T02:14:22.490Z,58.25
2019-05-22T02:16:57.181Z,58.49
2019-05-22T02:19:26.424Z,58.44
2019-05-22T02:21:59.162Z,58.55
2019-05-22T02:24:31.160Z,58.37
2019-05-22T02:27:03.246Z,58.22
2019-05-22T02:29:36.026Z,58.35
2019-05-22T02:32:07.377Z,59.24
2019-05-22T02:34:41.192Z,60.28
2019-05-22T02:37:13.066Z,60.94
2019-05-22T02:39:44.902Z,60.90
2019-05-22T02:42:28.665Z,61.23
2019-05-22T02:45:01.946Z,60.40
2019-05-22T02:47:34.361Z,59.77
2019-05-22T02:50:08.349Z,59.77
2019-05-22T02:52:40.704Z,60.95
2019-05-22T02:55:12.479Z,59.99
2019-05-22T02:57:44.132Z,59.59
2019-05-22T03:00:16.498Z,60.22
2019-05-22T03:02:51.331Z,60.23
2019-05-22T03:05:24.850Z,60.75
2019-05-22T03:07:59.008Z,59.76
2019-05-22T03:10:31.629Z,59.19
2019-05-22T03:13:02.943Z,58.93
2019-05-22T03:15:34.123Z,57.75
2019-05-22T03:18:08.075Z,57.28
2019-05-22T03:20:40.508Z,56.97
2019-05-22T03:23:35.040Z,57.31
2019-05-22T03:26:08.444Z,57.78
2019-05-22T03:28:40.365Z,58.36
2019-05-22T03:31:13.056Z,59.77
2019-05-22T03:33:45.440Z,58.86
2019-05-22T03:36:18.229Z,58.18
2019-05-22T03:38:49.852Z,58.14
2019-05-22T03:41:22.875Z,57.76
2019-05-22T03:43:56.246Z,57.01
2019-05-22T03:46:33.373Z,57.11
2019-05-22T03:49:05.658Z,56.83
2019-05-22T03:51:38.509Z,56.22
2019-05-22T03:54:11.377Z,55.68
2019-05-22T03:56:42.904Z,55.38
2019-05-22T03:59:14.992Z,55.66
2019-05-22T04:01:46.867Z,55.75
2019-05-22T04:04:33.087Z,55.48
2019-05-22T04:07:06.196Z,55.73
2019-05-22T04:09:39.246Z,55.25
2019-05-22T04:12:12.642Z,55.05
2019-05-22T04:14:44.201Z,55.24
2019-05-22T04:17:16.266Z,55.61
2019-05-22T04:19:51.171Z,56.03
2019-05-22T04:22:20.921Z,56.43
2019-05-22T04:24:52.272Z,56.98
2019-05-22T04:27:23.615Z,57.45
2019-05-22T04:29:56.090Z,58.10
2019-05-22T04:32:28.793Z,59.80
2019-05-22T04:35:02.242Z,62.27
2019-05-22T04:37:34.547Z,63.76
2019-05-22T04:40:27.566Z,66.42
2019-05-22T04:42:59.671Z,68.38
2019-05-22T04:45:31.743Z,70.01
2019-05-22T04:48:03.914Z,70.74
2019-05-22T04:50:35.057Z,71.66
2019-05-22T04:53:06.200Z,73.08
2019-05-22T04:55:37.970Z,73.79
2019-05-22T04:58:10.763Z,73.43
2019-05-22T05:00:42.192Z,73.84
2019-05-22T05:03:13.335Z,74.69
2019-05-22T05:05:54.228Z,74.62
2019-05-22T05:08:25.974Z,74.89
2019-05-22T05:10:58.970Z,75.30
2019-05-22T05:13:30.420Z,75.57
2019-05-22T05:16:02.588Z,76.17
2019-05-22T05:18:34.444Z,77.25
2019-05-22T05:21:06.307Z,77.99
2019-05-22T05:23:37.510Z,78.22
2019-05-22T05:26:09.331Z,77.87
2019-05-22T05:28:40.569Z,77.77
2019-05-22T05:31:12.454Z,77.47
2019-05-22T05:34:05.603Z,77.90
2019-05-22T05:36:38.591Z,77.79
2019-05-22T05:39:29.805Z,78.13
2019-05-22T05:42:01.371Z,78.31
2019-05-22T05:44:32.830Z,79.15
2019-05-22T05:47:06.136Z,78.90
2019-05-22T05:49:37.731Z,78.73
2019-05-22T05:52:10.662Z,78.86
2019-05-22T05:54:43.868Z,79.24
2019-05-22T05:57:36.923Z,80.39
2019-05-22T06:00:22.813Z,80.67
2019-05-22T06:02:58.466Z,81.20
2019-05-22T06:05:29.915Z,81.50
2019-05-22T06:08:01.372Z,81.38
2019-05-22T06:10:42.678Z,81.89
2019-05-22T06:13:15.235Z,82.04
2019-05-22T06:15:49.969Z,81.97
2019-05-22T06:18:30.750Z,81.69
2019-05-22T06:21:04.512Z,81.84
2019-05-22T06:23:42.468Z,81.73
2019-05-22T06:26:29.273Z,81.86
2019-05-22T06:29:00.619Z,81.49
2019-05-22T06:31:47.130Z,81.35
2019-05-22T06:34:21.914Z,81.04
2019-05-22T06:36:53.806Z,81.03
2019-05-22T06:39:25.364Z,80.92
2019-05-22T06:41:56.709Z,83.20
2019-05-22T06:44:34.100Z,84.02
2019-05-22T06:47:07.109Z,84.85
2019-05-22T06:49:39.203Z,86.02
2019-05-22T06:52:11.873Z,85.84
2019-05-22T06:54:43.798Z,84.95
2019-05-22T06:57:16.781Z,84.83
2019-05-22T07:00:11.657Z,84.87
2019-05-22T07:02:25.726Z,85.12
2019-05-22T07:04:57.187Z,84.87
2019-05-22T07:07:29.377Z,84.87
2019-05-22T07:10:01.654Z,84.30
2019-05-22T07:12:33.180Z,84.08
2019-05-22T07:15:08.725Z,82.79
2019-05-22T07:17:42.119Z,79.12
2019-05-22T07:20:15.745Z,79.78
2019-05-22T07:22:47.684Z,74.61
2019-05-22T07:25:19.345Z,69.47
2019-05-22T07:27:50.590Z,66.51
2019-05-22T07:30:23.065Z,65.17
2019-05-22T07:32:54.664Z,64.38
2019-05-22T07:35:45.716Z,62.60
2019-05-22T07:38:00.287Z,61.53
2019-05-22T07:40:32.354Z,60.44
2019-05-22T07:43:04.591Z,59.73
2019-05-22T07:45:37.638Z,58.45
2019-05-22T07:48:09.521Z,57.09
2019-05-22T07:50:42.434Z,56.03
2019-05-22T07:53:14.135Z,54.70
2019-05-22T07:55:45.699Z,53.70
2019-05-22T07:58:16.995Z,53.93
2019-05-22T08:00:51.000Z,53.66
2019-05-22T08:03:23.111Z,53.80
2019-05-22T08:05:55.147Z,52.75
2019-05-22T08:08:26.733Z,53.79
2019-05-22T08:10:58.393Z,53.48
2019-05-22T08:13:30.458Z,52.57
2019-05-22T08:16:02.086Z,53.26
2019-05-22T08:18:36.032Z,54.48
2019-05-22T08:21:08.103Z,53.86
2019-05-22T08:23:39.462Z,54.29
2019-05-22T08:26:12.846Z,53.21
2019-05-22T08:28:44.099Z,52.08
2019-05-22T08:31:15.965Z,51.89
2019-05-22T08:33:47.103Z,51.60
2019-05-22T08:36:18.453Z,50.56
2019-05-22T08:38:49.974Z,50.11
2019-05-22T08:41:26.158Z,49.75
2019-05-22T08:44:15.143Z,50.18
2019-05-22T08:46:31.648Z,50.13
2019-05-22T08:49:03.299Z,49.81
2019-05-22T08:51:34.644Z,49.46
2019-05-22T08:54:06.241Z,48.87
2019-05-22T08:56:39.097Z,48.32
2019-05-22T08:59:19.544Z,47.88
2019-05-22T09:01:43.852Z,47.30
2019-05-22T09:04:14.888Z,46.74
2019-05-22T09:06:45.925Z,47.48
2019-05-22T09:09:17.186Z,47.14
2019-05-22T09:11:48.748Z,47.80
2019-05-22T09:14:20.077Z,48.27
2019-05-22T09:16:52.158Z,48.06
2019-05-22T09:19:23.291Z,48.96
2019-05-22T09:21:54.335Z,48.65
2019-05-22T09:24:26.431Z,48.04
2019-05-22T09:26:57.760Z,48.07
2019-05-22T09:29:29.114Z,48.17
2019-05-22T09:32:00.773Z,48.32
2019-05-22T09:34:32.080Z,48.94
2019-05-22T09:37:03.268Z,48.49
2019-05-22T09:39:34.819Z,48.59
2019-05-22T09:42:06.275Z,49.10
2019-05-22T09:44:38.653Z,49.14
2019-05-22T09:47:10.197Z,49.67
2019-05-22T09:49:41.252Z,49.03
2019-05-22T09:52:13.407Z,49.25
2019-05-22T09:54:45.623Z,50.07
2019-05-22T09:57:17.750Z,50.09
2019-05-22T09:59:49.089Z,50.28
2019-05-22T10:02:22.046Z,50.90
2019-05-22T10:04:53.424Z,50.95
2019-05-22T10:07:24.780Z,50.89
2019-05-22T10:09:55.960Z,50.70
2019-05-22T10:12:27.802Z,50.49
2019-05-22T10:14:58.822Z,50.66
2019-05-22T10:17:30.788Z,50.79
2019-05-22T10:20:02.178Z,51.01
2019-05-22T10:22:33.737Z,50.61
2019-05-22T10:25:15.546Z,50.52
2019-05-22T10:27:39.495Z,50.58
2019-05-22T10:30:14.085Z,50.36
2019-05-22T10:32:44.651Z,51.36
2019-05-22T10:35:15.856Z,51.55
2019-05-22T10:37:46.904Z,52.10
2019-05-22T10:40:18.350Z,52.66
2019-05-22T10:42:49.397Z,52.88
2019-05-22T10:45:20.949Z,53.16
2019-05-22T10:47:52.195Z,53.38
2019-05-22T10:50:23.649Z,53.46
2019-05-22T10:52:55.326Z,53.56
2019-05-22T10:55:27.162Z,53.83
2019-05-22T10:57:59.050Z,54.13
2019-05-22T11:00:31.086Z,54.03
2019-05-22T11:03:02.689Z,54.29
2019-05-22T11:05:33.899Z,54.17
2019-05-22T11:08:05.502Z,54.36
2019-05-22T11:10:36.938Z,54.21
2019-05-22T11:13:08.774Z,54.33
2019-05-22T11:15:40.935Z,54.23
2019-05-22T11:18:13.096Z,54.04
2019-05-22T11:20:44.451Z,53.85
2019-05-22T11:23:15.571Z,54.26
2019-05-22T11:25:47.466Z,55.28
2019-05-22T11:28:18.507Z,55.60
2019-05-22T11:30:49.851Z,55.94
2019-05-22T11:33:21.504Z,55.89
2019-05-22T11:35:53.058Z,56.04
2019-05-22T11:38:24.211Z,55.68
2019-05-22T11:40:55.350Z,55.71
2019-05-22T11:43:27.139Z,55.59
2019-05-22T11:45:58.151Z,55.74
2019-05-22T11:48:29.614Z,55.53
2019-05-22T11:51:01.881Z,55.80
2019-05-22T11:53:33.223Z,55.72
2019-05-22T11:56:04.575Z,55.74
2019-05-22T11:58:36.029Z,55.43
2019-05-22T12:01:07.586Z,55.89
2019-05-22T12:03:38.732Z,55.48
2019-05-22T12:06:10.182Z,54.96
2019-05-22T12:08:41.799Z,55.15
2019-05-22T12:11:14.432Z,54.79
2019-05-22T12:13:45.682Z,53.82
2019-05-22T12:16:17.219Z,53.57
2019-05-22T12:18:49.001Z,53.60
2019-05-22T12:21:20.222Z,54.23
2019-05-22T12:23:51.464Z,53.97
2019-05-22T12:26:23.246Z,53.40
2019-05-22T12:28:54.464Z,52.87
2019-05-22T12:31:25.927Z,52.70
2019-05-22T12:33:57.435Z,51.55
2019-05-22T12:36:28.728Z,51.13
2019-05-22T12:39:00.685Z,50.95
2019-05-22T12:41:31.933Z,50.94
2019-05-22T12:44:03.837Z,50.60
2019-05-22T12:46:35.612Z,50.24
2019-05-22T12:49:09.381Z,49.12
2019-05-22T12:51:40.607Z,46.98
2019-05-22T12:54:12.276Z,46.55
2019-05-22T12:56:44.018Z,43.99
2019-05-22T12:59:15.163Z,41.56
2019-05-22T13:01:47.539Z,40.04
2019-05-22T13:04:18.817Z,40.41
2019-05-22T13:06:50.362Z,40.45
2019-05-22T13:09:21.903Z,39.86
2019-05-22T13:11:53.145Z,39.60
2019-05-22T13:14:25.145Z,39.49
2019-05-22T13:16:56.461Z,39.25
2019-05-22T13:19:27.932Z,39.70
2019-05-22T13:22:00.602Z,39.56
2019-05-22T13:24:32.452Z,40.45
2019-05-22T13:27:05.137Z,41.16
2019-05-22T13:29:37.435Z,41.32
2019-05-22T13:32:08.689Z,42.07
2019-05-22T13:34:40.321Z,42.01
2019-05-22T13:37:12.067Z,42.58
2019-05-22T13:39:43.210Z,43.20
2019-05-22T13:42:14.263Z,42.94
2019-05-22T13:44:46.210Z,41.34
2019-05-22T13:47:17.455Z,39.24
2019-05-22T13:49:49.081Z,37.08
2019-05-22T13:52:20.461Z,35.86
2019-05-22T13:54:51.624Z,36.62
2019-05-22T13:57:23.060Z,36.57
2019-05-22T13:59:54.301Z,37.38
2019-05-22T14:02:27.297Z,36.65
2019-05-22T14:04:58.529Z,37.22
2019-05-22T14:07:30.088Z,37.32
2019-05-22T14:10:01.184Z,41.05
2019-05-22T14:12:32.680Z,45.31
2019-05-22T14:15:06.813Z,53.22
2019-05-22T14:17:38.034Z,55.81
2019-05-22T14:20:10.919Z,56.97
2019-05-22T14:22:42.267Z,58.53
2019-05-22T14:25:13.537Z,57.82
2019-05-22T14:27:44.960Z,57.25
2019-05-22T14:30:16.821Z,54.76
2019-05-22T14:32:48.196Z,52.26
2019-05-22T14:35:20.401Z,50.03
2019-05-22T14:37:51.793Z,47.32
2019-05-22T14:40:22.829Z,47.41
2019-05-22T14:42:54.708Z,48.04
2019-05-22T14:45:26.249Z,47.87
2019-05-22T14:47:57.804Z,48.71
2019-05-22T14:50:32.705Z,49.71
2019-05-22T14:53:02.706Z,51.34
2019-05-22T14:55:34.915Z,53.01
2019-05-22T14:58:07.020Z,54.42
2019-05-22T15:00:39.681Z,55.15
2019-05-22T15:03:11.458Z,56.57
2019-05-22T15:05:42.482Z,57.82
2019-05-22T15:08:13.530Z,59.52
2019-05-22T15:10:44.881Z,59.76
2019-05-22T15:13:16.330Z,60.16
2019-05-22T15:15:47.580Z,60.82
2019-05-22T15:18:18.834Z,60.97
2019-05-22T15:20:52.251Z,61.21
2019-05-22T15:23:24.361Z,61.63
2019-05-22T15:25:55.644Z,62.20
2019-05-22T15:28:27.310Z,60.77
2019-05-22T15:30:58.440Z,61.76
2019-05-22T15:33:29.915Z,60.42
2019-05-22T15:36:01.154Z,61.20
2019-05-22T15:38:32.703Z,61.48
2019-05-22T15:41:05.284Z,61.88
2019-05-22T15:43:36.586Z,62.05
2019-05-22T15:46:08.603Z,62.58
2019-05-22T15:48:39.952Z,62.41
2019-05-22T15:51:11.591Z,63.05
2019-05-22T15:53:44.199Z,63.34
2019-05-22T15:56:16.184Z,62.94
2019-05-22T15:58:52.234Z,64.03
2019-05-22T16:01:24.714Z,63.74
2019-05-22T16:03:56.199Z,64.19
2019-05-22T16:06:29.257Z,64.95
2019-05-22T16:09:01.448Z,65.13
2019-05-22T16:11:34.469Z,64.99
2019-05-22T16:14:06.667Z,65.04
2019-05-22T16:16:38.810Z,65.97
2019-05-22T16:19:10.780Z,66.33
2019-05-22T16:21:46.115Z,66.29
2019-05-22T16:24:17.868Z,66.19
2019-05-22T16:26:48.908Z,66.05
2019-05-22T16:29:20.776Z,66.61
2019-05-22T16:31:52.321Z,67.18
2019-05-22T16:34:23.322Z,67.28
2019-05-22T16:36:55.749Z,67.66
2019-05-22T16:39:27.313Z,67.90
2019-05-22T16:41:58.666Z,68.95
2019-05-22T16:44:30.124Z,69.46
2019-05-22T16:47:01.596Z,69.93
2019-05-22T16:49:33.331Z,70.45
2019-05-22T16:52:05.325Z,71.02
2019-05-22T16:54:37.762Z,71.41
2019-05-22T16:57:10.452Z,71.82
2019-05-22T16:59:42.923Z,72.50
2019-05-22T17:02:14.785Z,73.13
2019-05-22T17:04:46.541Z,73.75
2019-05-22T17:07:17.688Z,74.51
2019-05-22T17:09:51.735Z,74.78
2019-05-22T17:12:23.459Z,75.30
2019-05-22T17:14:54.598Z,76.12
2019-05-22T17:17:25.866Z,76.22
2019-05-22T17:19:57.194Z,76.75
2019-05-22T17:22:28.451Z,76.89
2019-05-22T17:24:59.793Z,77.14
2019-05-22T17:27:31.735Z,77.17
2019-05-22T17:30:05.691Z,77.40
2019-05-22T17:32:37.395Z,77.79
2019-05-22T17:35:09.003Z,78.05
2019-05-22T17:37:41.261Z,78.12
2019-05-22T17:40:12.468Z,79.25
2019-05-22T17:42:43.542Z,79.79
2019-05-22T17:45:14.969Z,80.86
2019-05-22T17:47:46.450Z,80.89
2019-05-22T17:50:26.689Z,80.93
2019-05-22T17:52:51.059Z,81.72
2019-05-22T17:55:22.970Z,82.08
2019-05-22T17:57:54.896Z,82.57
2019-05-22T18:00:37.752Z,82.97
2019-05-22T18:03:09.300Z,83.46
2019-05-22T18:05:40.725Z,83.90
2019-05-22T18:08:12.409Z,84.15
2019-05-22T18:10:44.395Z,83.99
2019-05-22T18:13:16.538Z,83.98
2019-05-22T18:15:48.299Z,83.96
2019-05-22T18:18:19.592Z,82.15
2019-05-22T18:20:51.123Z,83.81
2019-05-22T18:23:22.517Z,83.96
2019-05-22T18:25:53.950Z,84.79
2019-05-22T18:28:25.674Z,86.03
2019-05-22T18:30:57.030Z,86.89
2019-05-22T18:33:28.174Z,86.99
2019-05-22T18:35:59.224Z,86.72
2019-05-22T18:38:30.410Z,86.80
2019-05-22T18:41:01.916Z,86.43
2019-05-22T18:43:33.883Z,86.30
2019-05-22T18:46:05.199Z,86.17
2019-05-22T18:48:36.686Z,86.30
2019-05-22T18:51:09.102Z,85.91
2019-05-22T18:53:41.749Z,86.01
2019-05-22T18:56:13.408Z,85.67
2019-05-22T18:58:45.878Z,85.94
2019-05-22T19:01:16.922Z,86.24
2019-05-22T19:03:48.481Z,85.55
2019-05-22T19:06:29.656Z,85.10
2019-05-22T19:08:52.936Z,85.38
2019-05-22T19:11:24.389Z,85.94
2019-05-22T19:13:55.731Z,86.88
2019-05-22T19:16:27.082Z,87.40
2019-05-22T19:19:00.175Z,86.88
2019-05-22T19:21:31.317Z,87.51
2019-05-22T19:24:02.899Z,87.38
2019-05-22T19:26:34.125Z,88.13
2019-05-22T19:29:06.099Z,87.56
2019-05-22T19:31:37.447Z,87.24
2019-05-22T19:34:10.436Z,86.50
2019-05-22T19:36:41.682Z,85.93
2019-05-22T19:39:13.246Z,85.61
2019-05-22T19:41:44.487Z,84.78
2019-05-22T19:44:16.985Z,84.70
2019-05-22T19:46:49.763Z,85.56
2019-05-22T19:49:20.787Z,85.50
2019-05-22T19:51:52.478Z,84.96
2019-05-22T19:54:24.000Z,80.51
2019-05-22T19:56:55.743Z,76.95
2019-05-22T19:59:27.117Z,74.97
2019-05-22T20:01:59.512Z,74.48
2019-05-22T20:04:30.726Z,74.59
2019-05-22T20:07:02.326Z,73.92
2019-05-22T20:09:33.974Z,73.45
2019-05-22T20:12:07.023Z,73.35
2019-05-22T20:14:38.688Z,72.39
2019-05-22T20:17:11.058Z,71.95
2019-05-22T20:19:43.120Z,71.77
2019-05-22T20:22:16.124Z,71.47
2019-05-22T20:24:47.356Z,71.58
2019-05-22T20:27:18.980Z,71.74
2019-05-22T20:29:50.259Z,71.57
2019-05-22T20:32:21.401Z,71.74
2019-05-22T20:34:52.753Z,72.14
2019-05-22T20:37:23.835Z,71.78
2019-05-22T20:39:55.248Z,71.71
2019-05-22T20:42:26.593Z,71.81
2019-05-22T20:44:57.847Z,71.83
2019-05-22T20:47:31.859Z,71.57
2019-05-22T20:50:03.505Z,71.31
2019-05-22T20:52:35.695Z,71.13
2019-05-22T20:57:38.393Z,70.10
2019-05-22T21:00:10.192Z,69.78
2019-05-22T21:02:43.044Z,69.11
2019-05-22T21:05:14.183Z,68.91
2019-05-22T21:07:49.123Z,68.55
2019-05-22T21:10:24.591Z,68.45
2019-05-22T21:12:57.058Z,68.29
2019-05-22T21:15:29.731Z,67.98
2019-05-22T21:18:02.923Z,68.07
2019-05-22T21:20:35.414Z,68.17
2019-05-22T21:23:06.959Z,68.13
2019-05-22T21:25:38.207Z,68.26
2019-05-22T21:28:10.174Z,68.37
2019-05-22T21:30:42.678Z,68.21
2019-05-22T21:33:15.128Z,68.33
2019-05-22T21:35:47.238Z,68.17
2019-05-22T21:38:20.286Z,68.02
2019-05-22T21:40:52.259Z,67.85
2019-05-22T21:43:24.445Z,67.67
2019-05-22T21:45:55.573Z,68.01
2019-05-22T21:48:28.877Z,68.08
2019-05-22T21:51:00.733Z,68.08
2019-05-22T21:53:31.990Z,68.27
2019-05-22T21:56:06.213Z,68.43
2019-05-22T21:58:37.690Z,68.58
2019-05-22T22:01:10.339Z,68.85
2019-05-22T22:03:46.402Z,69.35
2019-05-22T22:06:17.550Z,69.54
2019-05-22T22:08:49.010Z,69.74
2019-05-22T22:11:22.011Z,70.12
2019-05-22T22:13:53.245Z,70.24
2019-05-22T22:16:24.903Z,69.96
2019-05-22T22:18:56.360Z,69.67
2019-05-22T22:21:28.421Z,69.63
2019-05-22T22:23:59.573Z,69.54
2019-05-22T22:26:31.959Z,69.61
2019-05-22T22:29:03.194Z,69.30
2019-05-22T22:31:36.718Z,69.61
2019-05-22T22:34:11.238Z,69.67
2019-05-22T22:36:42.477Z,69.79
2019-05-22T22:39:15.293Z,69.72
2019-05-22T22:41:47.549Z,69.66
2019-05-22T22:44:18.909Z,69.38
2019-05-22T22:46:52.186Z,69.19
2019-05-22T22:49:23.673Z,69.18
2019-05-22T22:51:55.663Z,69.06
2019-05-22T22:54:26.757Z,69.04
2019-05-22T22:56:59.162Z,69.04
2019-05-22T22:59:30.712Z,68.56
2019-05-22T23:02:01.938Z,68.23
2019-05-22T23:04:33.091Z,68.50
2019-05-22T23:07:05.990Z,68.36
2019-05-22T23:09:37.321Z,68.15
2019-05-22T23:12:09.909Z,67.99
2019-05-22T23:14:44.910Z,67.78
2019-05-22T23:17:16.801Z,67.77
2019-05-22T23:19:47.439Z,67.75
2019-05-22T23:22:18.025Z,67.67
2019-05-22T23:24:52.127Z,67.68
2019-05-22T23:27:23.349Z,67.57
2019-05-22T23:29:56.227Z,67.54
2019-05-22T23:32:28.506Z,67.40
2019-05-22T23:35:00.060Z,67.30
2019-05-22T23:37:31.827Z,67.24
2019-05-22T23:40:02.963Z,67.29
2019-05-22T23:42:35.271Z,67.34
2019-05-22T23:45:10.581Z,67.31
2019-05-22T23:47:51.260Z,67.36
2019-05-22T23:50:23.525Z,67.24
2019-05-22T23:52:54.883Z,67.36
2019-05-22T23:55:26.341Z,67.22
2019-05-22T23:57:58.711Z,67.09
